< < Back
Terminal Aerodrome Forecast


Current Version              Previous Versions:   1  2  3  4  5  6  7  8  9  

Terminal Aerodrome Forecast

392
FTUS42 KJAX 010715 AAA
TAFGNV
TAF AMD
KGNV 010715Z 0107/0206 VRB03KT P6SM SCT250
      TEMPO 0110/0112 3SM BR
     FM011400 24007KT P6SM VCSH BKN050
     FM011700 25010KT P6SM VCTS BKN035CB
     FM012300 22006KT P6SM SCT040 BKN120
     FM020400 VRB03KT P6SM SCT250=

Latest METAR

800
SAUS70 KWBC 011200 RRU
MTRGNV
METAR KGNV 011153Z 28003KT 9SM CLR 24/23 A3013 RMK AO2 SLP200 T02440228
10244 20200 51010


USA.gov is the U.S. government's official web portal to all federal, state and local government web resources and services.